+07,Max TemperatureF,Mean TemperatureF,Min TemperatureF,Max Dew PointF,MeanDew PointF,Min DewpointF,Max Humidity, Mean Humidity, Min Humidity, Max Sea Level PressureIn, Mean Sea Level PressureIn, Min Sea Level PressureIn, Max VisibilityMiles, Mean VisibilityMiles, Min VisibilityMiles, Max Wind SpeedMPH, Mean Wind SpeedMPH, Max Gust SpeedMPH,PrecipitationIn, CloudCover, Events, WindDirDegrees
2012-9-1,91,84,78,75,73,70,83,68,45,29.78,29.74,29.68,6,6,4,14,6,,0.12,6,Rain,238
2012-9-2,92,86,79,79,73,70,89,71,49,29.77,29.71,29.65,6,6,2,12,6,,0.94,6,Rain-Thunderstorm,244
2012-9-3,91,84,77,77,72,69,94,68,46,29.77,29.73,29.65,6,6,6,10,5,,0.00,6,Rain,259
2012-9-4,84,80,77,75,72,70,94,74,63,29.83,29.77,29.71,6,6,3,16,5,,0.59,6,Rain,298
2012-9-5,92,84,77,77,75,70,94,76,52,29.83,29.74,29.65,6,6,4,14,5,,0.31,6,Rain-Thunderstorm,318
2012-9-6,80,78,77,77,76,73,100,92,81,29.77,29.70,29.62,6,5,3,13,6,,2.09,7,Rain,294
2012-9-7,86,81,76,79,76,73,97,82,68,29.77,29.72,29.68,6,6,4,20,5,,0.20,6,Rain,153
2012-9-8,91,84,78,77,75,73,89,74,54,29.86,29.81,29.74,6,6,6,12,4,,0.00,6,,177
2012-9-9,90,84,79,77,74,70,89,72,45,29.89,29.82,29.77,6,6,6,9,2,,0.00,5,,253
2012-9-10,91,86,80,76,74,71,84,71,46,29.86,29.80,29.71,6,6,6,12,3,,0.00,6,Thunderstorm,307
2012-9-11,94,86,78,77,75,72,89,72,46,29.83,29.77,29.68,6,6,4,14,2,,0.16,6,Rain-Thunderstorm,274
2012-9-12,92,86,79,77,74,72,89,69,45,29.83,29.76,29.68,6,6,5,12,2,,0.16,6,Rain-Thunderstorm,227
2012-9-13,90,82,75,77,74,70,94,71,46,29.83,29.75,29.65,6,6,4,16,3,,0.79,6,Rain-Thunderstorm,224
2012-9-14,90,83,76,77,75,72,94,78,58,29.77,29.71,29.62,6,6,3,17,3,,0.01,6,Rain-Thunderstorm,163
2012-9-15,93,86,78,82,76,73,94,79,52,29.80,29.72,29.65,6,6,1,9,2,,1.93,6,Rain-Thunderstorm,81
2012-9-16,85,81,77,79,76,73,94,86,69,29.86,29.77,29.71,6,6,5,12,2,,0.67,6,Rain-Thunderstorm,235
2012-9-17,89,82,76,79,75,72,100,83,54,29.86,29.81,29.74,6,6,3,8,3,,0.28,6,Rain,255
2012-9-18,90,84,78,79,77,73,100,84,57,29.83,29.77,29.71,6,6,3,17,4,29,0.31,6,Rain-Thunderstorm,251
2012-9-19,93,86,78,77,75,72,89,77,56,29.80,29.76,29.68,6,6,5,10,3,,0.00,6,,211
2012-9-20,91,84,78,79,76,73,94,79,56,29.83,29.76,29.68,6,6,3,13,3,,0.16,6,Rain-Thunderstorm,230
2012-9-21,87,81,75,77,75,73,95,82,59,29.83,29.77,29.68,6,6,2,12,3,,0.79,6,Rain-Thunderstorm,238
2012-9-22,91,84,78,77,75,72,89,75,47,29.83,29.75,29.68,6,6,4,14,4,,0.59,6,Rain-Thunderstorm,208
2012-9-23,95,88,80,79,75,72,89,72,47,29.77,29.71,29.62,6,6,6,14,4,,0.01,6,Rain,242
2012-9-24,93,86,78,77,76,73,94,76,52,29.77,29.68,29.59,6,6,3,16,5,,1.77,6,Rain-Thunderstorm,246
2012-9-25,90,84,78,79,75,72,94,78,52,29.77,29.70,29.65,6,6,3,14,3,,0.67,6,Rain-Thunderstorm,252
2012-9-26,94,86,77,79,76,73,94,74,47,29.80,29.74,29.68,6,6,5,9,2,,0.04,6,,341
2012-9-27,92,84,76,77,75,73,94,79,56,29.86,29.78,29.71,6,6,4,21,5,,0.04,6,Rain-Thunderstorm,320
2012-9-28,83,80,76,77,74,73,94,84,65,29.86,29.79,29.71,6,6,3,9,4,,0.47,6,Rain-Thunderstorm,291
2012-9-29,92,84,75,77,75,73,94,79,54,29.89,29.81,29.71,6,6,3,12,3,,1.30,6,Rain-Thunderstorm,282
2012-9-30,96,86,76,77,75,73,94,74,42,29.89,29.82,29.74,6,6,3,12,3,,0.79,6,Rain-Thunderstorm,224